createdAt,value
2023-05-08T00:01:27.280Z,7.27
2023-05-08T00:03:57.313Z,7.45
2023-05-08T00:06:27.691Z,7.02
2023-05-08T00:08:57.730Z,6.89
2023-05-08T00:11:27.755Z,7.42
2023-05-08T00:14:00.328Z,7.64
2023-05-08T00:16:30.343Z,7.45
2023-05-08T00:19:00.772Z,7.51
2023-05-08T00:21:31.359Z,7.56
2023-05-08T00:24:01.389Z,7.82
2023-05-08T00:26:31.456Z,7.58
2023-05-08T00:29:06.013Z,7.59
2023-05-08T00:31:36.593Z,7.79
2023-05-08T00:34:06.638Z,8.04
2023-05-08T00:36:36.645Z,7.87
2023-05-08T00:39:06.964Z,8.02
2023-05-08T00:41:36.893Z,8.11
2023-05-08T00:44:09.489Z,7.69
2023-05-08T00:46:39.938Z,7.61
2023-05-08T00:49:14.638Z,7.71
2023-05-08T00:51:45.963Z,7.69
2023-05-08T00:54:16.745Z,7.53
2023-05-08T00:56:48.723Z,7.62
2023-05-08T00:59:24.218Z,7.36
2023-05-08T01:01:55.825Z,7.59
2023-05-08T01:04:29.564Z,7.56
2023-05-08T01:06:59.552Z,7.60
2023-05-08T01:09:29.478Z,7.51
2023-05-08T01:12:18.933Z,7.20
2023-05-08T01:15:03.693Z,7.74
2023-05-08T01:17:50.782Z,7.47
2023-05-08T01:20:38.753Z,7.55
2023-05-08T01:23:47.347Z,7.55
2023-05-08T01:26:45.095Z,7.80
2023-05-08T01:30:02.856Z,7.70
2023-05-08T01:32:42.109Z,8.02
2023-05-08T01:35:23.304Z,7.75
2023-05-08T01:38:00.958Z,7.23
2023-05-08T01:40:40.236Z,7.25
2023-05-08T01:43:21.660Z,7.33
2023-05-08T01:45:55.951Z,7.56
2023-05-08T01:48:33.994Z,7.59
2023-05-08T01:51:10.919Z,7.78
2023-05-08T01:53:45.716Z,7.93
2023-05-08T01:56:22.283Z,7.88
2023-05-08T01:58:55.836Z,8.01
2023-05-08T02:01:29.563Z,7.77
2023-05-08T02:04:04.055Z,7.74
2023-05-08T02:06:36.247Z,7.82
2023-05-08T02:09:06.233Z,8.42
2023-05-08T02:11:40.286Z,7.90
2023-05-08T02:14:12.189Z,7.96
2023-05-08T02:16:44.958Z,7.61
2023-05-08T02:19:20.044Z,7.64
2023-05-08T02:21:53.575Z,7.70
2023-05-08T02:24:25.234Z,7.95
2023-05-08T02:26:58.832Z,7.74
2023-05-08T02:29:31.850Z,8.07
2023-05-08T02:32:06.488Z,8.03
2023-05-08T02:34:45.224Z,7.98
2023-05-08T02:37:24.751Z,8.20
2023-05-08T02:40:00.353Z,8.00
2023-05-08T02:42:30.679Z,7.72
2023-05-08T02:45:00.777Z,7.99
2023-05-08T02:47:40.945Z,8.30
2023-05-08T02:50:21.326Z,7.81
2023-05-08T02:52:55.370Z,8.50
2023-05-08T02:55:37.177Z,8.32
2023-05-08T02:58:17.783Z,8.30
2023-05-08T03:00:53.181Z,7.89
2023-05-08T03:03:28.193Z,8.42
2023-05-08T03:06:05.438Z,8.50
2023-05-08T03:08:38.097Z,8.44
2023-05-08T03:11:14.855Z,8.30
2023-05-08T03:13:48.352Z,8.25
2023-05-08T03:16:24.946Z,8.48
2023-05-08T03:18:59.716Z,8.69
2023-05-08T03:21:34.582Z,8.55
2023-05-08T03:24:08.585Z,9.00
2023-05-08T03:26:40.031Z,8.53
2023-05-08T03:29:11.237Z,8.35
2023-05-08T03:31:43.326Z,8.49
2023-05-08T03:34:16.453Z,8.56
2023-05-08T03:36:49.622Z,8.12
2023-05-08T03:39:20.083Z,8.24
2023-05-08T03:41:51.046Z,8.60
2023-05-08T03:44:22.792Z,8.41
2023-05-08T03:46:58.676Z,8.33
2023-05-08T03:49:30.615Z,8.57
2023-05-08T03:52:03.792Z,8.54
2023-05-08T03:54:34.027Z,9.54
2023-05-08T03:57:04.067Z,9.21
2023-05-08T03:59:45.277Z,9.24
2023-05-08T04:02:28.324Z,9.68
2023-05-08T04:05:09.264Z,9.75
2023-05-08T04:07:50.925Z,10.37
2023-05-08T04:10:31.300Z,10.71
2023-05-08T04:13:10.174Z,10.46
2023-05-08T04:15:54.666Z,10.24
2023-05-08T04:18:32.204Z,11.67
2023-05-08T04:21:11.616Z,11.50
2023-05-08T04:23:48.923Z,11.18
2023-05-08T04:26:21.072Z,10.92
2023-05-08T04:28:52.842Z,9.97
2023-05-08T04:31:23.128Z,10.75
2023-05-08T04:33:53.719Z,10.80
2023-05-08T04:36:23.960Z,11.09
2023-05-08T04:38:56.514Z,11.46
2023-05-08T04:41:26.952Z,11.91
2023-05-08T04:43:57.602Z,12.30
2023-05-08T04:46:27.681Z,12.43
2023-05-08T04:48:58.278Z,12.85
2023-05-08T04:51:28.298Z,12.80
2023-05-08T04:54:01.306Z,12.57
2023-05-08T04:56:32.306Z,13.14
2023-05-08T04:59:03.198Z,13.19
2023-05-08T05:01:33.294Z,13.39
2023-05-08T05:04:03.615Z,13.58
2023-05-08T05:06:33.928Z,13.36
2023-05-08T05:09:07.158Z,13.53
2023-05-08T05:11:37.188Z,13.67
2023-05-08T05:14:07.436Z,13.50
2023-05-08T05:16:38.304Z,13.40
2023-05-08T05:19:08.445Z,14.66
2023-05-08T05:21:39.940Z,13.39
2023-05-08T05:24:12.729Z,13.36
2023-05-08T05:26:42.824Z,13.50
2023-05-08T05:29:13.364Z,12.68
2023-05-08T05:31:43.433Z,13.07
2023-05-08T05:34:13.747Z,13.61
2023-05-08T05:36:44.202Z,14.07
2023-05-08T05:39:16.776Z,13.61
2023-05-08T05:41:46.866Z,13.69
2023-05-08T05:44:16.853Z,14.10
2023-05-08T05:46:46.901Z,13.99
2023-05-08T05:49:16.944Z,14.57
2023-05-08T05:51:47.109Z,14.52
2023-05-08T05:54:20.620Z,15.21
2023-05-08T05:56:50.686Z,15.49
2023-05-08T05:59:20.855Z,15.46
2023-05-08T06:01:50.910Z,15.73
2023-05-08T06:04:21.465Z,16.50
2023-05-08T06:06:51.499Z,17.67
2023-05-08T06:09:24.060Z,19.68
2023-05-08T06:11:54.962Z,19.82
2023-05-08T06:14:24.905Z,19.24
2023-05-08T06:16:54.946Z,19.03
2023-05-08T06:19:25.130Z,18.91
2023-05-08T06:21:55.557Z,19.06
2023-05-08T06:24:28.364Z,18.99
2023-05-08T06:26:58.302Z,19.61
2023-05-08T06:29:28.218Z,20.41
2023-05-08T06:31:58.540Z,19.67
2023-05-08T06:34:28.500Z,18.88
2023-05-08T06:36:58.432Z,17.95
2023-05-08T06:39:31.084Z,16.97
2023-05-08T06:42:01.166Z,17.35
2023-05-08T06:44:34.297Z,18.34
2023-05-08T06:47:04.612Z,18.52
2023-05-08T06:49:34.524Z,18.65
2023-05-08T06:52:04.533Z,19.04
2023-05-08T06:54:37.029Z,18.70
2023-05-08T06:57:07.856Z,18.72
2023-05-08T06:59:37.872Z,18.66
2023-05-08T07:02:10.023Z,19.26
2023-05-08T07:04:40.273Z,19.61
2023-05-08T07:07:11.677Z,19.29
2023-05-08T07:09:44.310Z,19.26
2023-05-08T07:12:16.769Z,19.31
2023-05-08T07:14:46.785Z,18.80
2023-05-08T07:17:16.807Z,18.98
2023-05-08T07:19:46.782Z,18.65
2023-05-08T07:22:16.790Z,19.81
2023-05-08T07:24:49.375Z,19.79
2023-05-08T07:27:20.169Z,19.50
2023-05-08T07:29:50.217Z,19.63
2023-05-08T07:32:20.437Z,18.75
2023-05-08T07:34:50.481Z,19.74
2023-05-08T07:37:20.481Z,19.68
2023-05-08T07:39:53.065Z,19.83
2023-05-08T07:42:23.103Z,19.50
2023-05-08T07:44:55.115Z,19.78
2023-05-08T07:47:25.697Z,20.07
2023-05-08T07:49:56.458Z,20.58
2023-05-08T07:52:26.655Z,21.04
2023-05-08T07:54:59.256Z,21.17
2023-05-08T07:57:29.244Z,21.25
2023-05-08T08:00:04.613Z,21.76
2023-05-08T08:02:44.003Z,21.57
2023-05-08T08:05:14.594Z,21.37
2023-05-08T08:07:44.920Z,21.39
2023-05-08T08:10:17.730Z,21.01
2023-05-08T08:12:48.509Z,22.07
2023-05-08T08:15:18.708Z,21.71
2023-05-08T08:17:49.094Z,21.38
2023-05-08T08:20:19.358Z,20.70
2023-05-08T08:22:49.398Z,21.85
2023-05-08T08:25:22.620Z,21.58
2023-05-08T08:27:52.600Z,21.47
2023-05-08T08:30:22.886Z,21.43
2023-05-08T08:32:53.012Z,20.86
2023-05-08T08:35:29.334Z,20.08
2023-05-08T08:37:59.717Z,20.25
2023-05-08T08:40:32.389Z,20.96
2023-05-08T08:43:02.517Z,20.75
2023-05-08T08:45:33.804Z,21.00
2023-05-08T08:48:05.331Z,20.92
2023-05-08T08:50:36.246Z,20.01
2023-05-08T08:53:13.307Z,20.56
2023-05-08T08:55:49.906Z,20.97
2023-05-08T08:58:26.913Z,19.76
2023-05-08T09:00:58.189Z,19.10
2023-05-08T09:03:28.617Z,21.12
2023-05-08T09:06:02.077Z,21.29
2023-05-08T09:08:32.677Z,21.85
2023-05-08T09:11:05.746Z,23.22
2023-05-08T09:13:35.970Z,22.21
2023-05-08T09:16:06.462Z,22.67
2023-05-08T09:18:36.427Z,23.18
2023-05-08T09:21:08.909Z,23.04
2023-05-08T09:23:38.982Z,23.58
2023-05-08T09:26:12.056Z,22.85
2023-05-08T09:28:42.017Z,23.14
2023-05-08T09:31:12.062Z,22.58
2023-05-08T09:33:47.878Z,21.53
2023-05-08T09:36:29.632Z,23.47
2023-05-08T09:38:59.611Z,23.60
2023-05-08T09:41:32.305Z,21.96
2023-05-08T09:44:07.379Z,22.46
2023-05-08T09:46:38.146Z,20.82
2023-05-08T09:49:08.180Z,19.83
2023-05-08T09:51:38.270Z,20.56
2023-05-08T09:54:20.866Z,21.93
2023-05-08T09:56:53.709Z,23.00
2023-05-08T09:59:29.456Z,23.15
2023-05-08T10:02:00.592Z,23.11
2023-05-08T10:04:36.948Z,23.35
2023-05-08T10:07:07.619Z,23.19
2023-05-08T10:09:49.850Z,23.98
2023-05-08T10:12:24.400Z,22.75
2023-05-08T10:14:55.224Z,22.58
2023-05-08T10:17:30.646Z,20.79
2023-05-08T10:20:04.015Z,20.99
2023-05-08T10:22:40.037Z,19.85
2023-05-08T10:25:20.318Z,19.85
2023-05-08T10:28:02.396Z,19.46
2023-05-08T10:30:34.893Z,19.64
2023-05-08T10:33:11.140Z,20.17
2023-05-08T10:35:41.781Z,19.38
2023-05-08T10:38:12.458Z,19.76
2023-05-08T10:40:42.840Z,19.53
2023-05-08T10:43:16.159Z,19.43
2023-05-08T10:45:47.393Z,18.96
2023-05-08T10:48:35.002Z,18.53
2023-05-08T10:51:13.059Z,18.48
2023-05-08T10:53:51.754Z,18.63
2023-05-08T10:56:27.768Z,17.79
2023-05-08T10:59:04.163Z,18.23
2023-05-08T11:01:34.385Z,17.78
2023-05-08T11:04:04.553Z,17.57
2023-05-08T11:06:53.365Z,16.81
2023-05-08T11:09:24.855Z,17.18
2023-05-08T11:12:11.376Z,15.96
2023-05-08T11:14:46.849Z,14.71
2023-05-08T11:17:25.891Z,14.29
2023-05-08T11:20:01.359Z,15.48
2023-05-08T11:22:33.344Z,14.93
2023-05-08T11:25:06.290Z,15.03
2023-05-08T11:27:41.697Z,15.84
2023-05-08T11:30:37.718Z,16.08
2023-05-08T11:33:37.433Z,14.97
2023-05-08T11:36:17.619Z,14.54
2023-05-08T11:39:12.806Z,14.28
2023-05-08T11:41:42.944Z,13.88
2023-05-08T11:44:21.871Z,13.56
2023-05-08T11:46:56.611Z,13.49
2023-05-08T11:49:30.216Z,13.14
2023-05-08T11:52:03.903Z,12.06
2023-05-08T11:54:34.393Z,12.31
2023-05-08T11:57:04.532Z,11.92
2023-05-08T11:59:39.305Z,12.46
2023-05-08T12:02:11.892Z,12.45
2023-05-08T12:04:48.797Z,12.86
2023-05-08T12:07:18.976Z,12.84
2023-05-08T12:09:49.505Z,12.17
2023-05-08T12:12:19.527Z,13.10
2023-05-08T12:14:52.957Z,12.03
2023-05-08T12:17:25.779Z,12.27
2023-05-08T12:20:04.257Z,12.13
2023-05-08T12:22:34.548Z,12.34
2023-05-08T12:25:06.760Z,11.96
2023-05-08T12:27:36.825Z,11.63
2023-05-08T12:30:10.903Z,11.39
2023-05-08T12:32:45.531Z,10.55
2023-05-08T12:35:16.822Z,10.72
2023-05-08T12:37:48.799Z,9.95
2023-05-08T12:40:31.601Z,9.68
2023-05-08T12:43:04.510Z,9.66
2023-05-08T12:45:37.336Z,9.28
2023-05-08T12:48:11.764Z,9.72
2023-05-08T12:50:43.831Z,10.32
2023-05-08T12:53:15.970Z,11.23
2023-05-08T12:55:54.135Z,10.82
2023-05-08T12:58:28.155Z,11.31
2023-05-08T13:01:13.166Z,11.82
2023-05-08T13:03:50.747Z,10.85
2023-05-08T13:06:26.134Z,10.33
2023-05-08T13:08:57.247Z,11.12
2023-05-08T13:11:34.959Z,10.72
2023-05-08T13:14:04.942Z,10.32
2023-05-08T13:16:45.165Z,10.13
2023-05-08T13:19:19.190Z,10.44
2023-05-08T13:21:49.685Z,10.86
2023-05-08T13:24:20.110Z,10.37
2023-05-08T13:26:50.040Z,9.98
2023-05-08T13:29:22.240Z,10.47
2023-05-08T13:31:52.343Z,10.23
2023-05-08T13:34:25.691Z,9.89
2023-05-08T13:36:55.955Z,9.71
2023-05-08T13:39:25.993Z,9.50
2023-05-08T13:41:55.922Z,9.31
2023-05-08T13:44:25.980Z,8.51
2023-05-08T13:46:56.187Z,8.96
2023-05-08T13:49:28.834Z,10.12
2023-05-08T13:51:58.847Z,9.67
2023-05-08T13:54:28.913Z,10.46
2023-05-08T13:56:59.273Z,9.77
2023-05-08T13:59:31.395Z,8.62
2023-05-08T14:02:01.353Z,9.24
2023-05-08T14:04:34.059Z,8.57
2023-05-08T14:07:04.082Z,8.41
2023-05-08T14:09:34.068Z,8.76
2023-05-08T14:12:05.086Z,8.20
2023-05-08T14:14:35.147Z,9.24
2023-05-08T14:17:05.249Z,9.79
2023-05-08T14:19:37.905Z,9.64
2023-05-08T14:22:07.950Z,9.39
2023-05-08T14:24:37.976Z,9.12
2023-05-08T14:27:07.922Z,8.91
2023-05-08T14:29:38.063Z,9.01
2023-05-08T14:32:09.473Z,9.62
2023-05-08T14:34:42.005Z,10.08
2023-05-08T14:37:13.196Z,10.08
2023-05-08T14:39:43.263Z,10.18
2023-05-08T14:42:22.864Z,10.24
2023-05-08T14:44:53.791Z,10.09
2023-05-08T14:47:23.780Z,10.18
2023-05-08T14:49:56.944Z,9.76
2023-05-08T14:52:26.938Z,9.39
2023-05-08T14:54:58.868Z,9.29
2023-05-08T14:57:28.990Z,9.98
2023-05-08T14:59:58.930Z,10.94
2023-05-08T15:02:29.076Z,11.28
2023-05-08T15:05:03.222Z,11.48
2023-05-08T15:07:41.390Z,11.42
2023-05-08T15:10:12.997Z,10.99
2023-05-08T15:12:43.059Z,11.41
2023-05-08T15:15:13.825Z,11.47
2023-05-08T15:17:44.105Z,11.45
2023-05-08T15:20:16.811Z,10.73
2023-05-08T15:22:46.856Z,10.37
2023-05-08T15:25:17.132Z,10.95
2023-05-08T15:27:52.614Z,11.48
2023-05-08T15:30:23.232Z,10.97
2023-05-08T15:32:53.463Z,10.90
2023-05-08T15:35:28.603Z,10.97
2023-05-08T15:37:58.615Z,11.02
2023-05-08T15:40:28.593Z,10.89
2023-05-08T15:42:59.074Z,11.00
2023-05-08T15:45:29.174Z,10.73
2023-05-08T15:47:59.366Z,11.49
2023-05-08T15:50:31.987Z,11.27
2023-05-08T15:53:01.962Z,10.79
2023-05-08T15:55:31.931Z,11.20
2023-05-08T15:58:02.070Z,11.18
2023-05-08T16:00:43.929Z,10.80
2023-05-08T16:03:14.614Z,10.95
2023-05-08T16:05:47.684Z,11.72
2023-05-08T16:08:17.722Z,11.13
2023-05-08T16:10:48.668Z,11.18
2023-05-08T16:13:19.187Z,11.53
2023-05-08T16:15:49.254Z,11.24
2023-05-08T16:18:19.287Z,11.27
2023-05-08T16:20:51.928Z,11.60
2023-05-08T16:23:21.912Z,12.20
2023-05-08T16:25:51.901Z,11.97
2023-05-08T16:28:22.056Z,11.81
2023-05-08T16:30:52.061Z,12.60
2023-05-08T16:33:22.046Z,12.74
2023-05-08T16:35:54.739Z,12.92
2023-05-08T16:38:24.760Z,12.87
2023-05-08T16:40:54.766Z,13.09
2023-05-08T16:43:24.802Z,12.62
2023-05-08T16:45:55.499Z,12.56
2023-05-08T16:48:28.126Z,12.06
2023-05-08T16:51:00.728Z,13.79
2023-05-08T16:53:32.720Z,12.33
2023-05-08T16:56:02.741Z,11.38
2023-05-08T16:58:33.072Z,11.14
2023-05-08T17:01:03.115Z,11.47
2023-05-08T17:03:33.272Z,10.83
2023-05-08T17:06:09.035Z,10.14
2023-05-08T17:08:39.111Z,9.87
2023-05-08T17:11:09.029Z,9.96
2023-05-08T17:13:39.003Z,9.82
2023-05-08T17:16:10.244Z,10.04
2023-05-08T17:18:40.323Z,10.41
2023-05-08T17:21:13.013Z,10.62
2023-05-08T17:23:43.079Z,10.29
2023-05-08T17:26:13.124Z,10.18
2023-05-08T17:28:43.112Z,9.83
2023-05-08T17:33:44.728Z,9.85
2023-05-08T17:36:17.320Z,9.84
2023-05-08T17:38:47.461Z,10.60
2023-05-08T17:41:17.576Z,10.22
2023-05-08T17:43:47.587Z,10.43
2023-05-08T17:46:17.638Z,10.64
2023-05-08T17:48:47.697Z,10.58
2023-05-08T17:51:20.582Z,10.23
2023-05-08T17:53:50.700Z,10.17
2023-05-08T17:56:23.282Z,10.17
2023-05-08T17:58:53.485Z,11.42
2023-05-08T18:01:24.900Z,11.40
2023-05-08T18:03:56.004Z,10.55
2023-05-08T18:06:28.626Z,10.99
2023-05-08T18:09:01.115Z,10.76
2023-05-08T18:11:31.162Z,10.98
2023-05-08T18:14:01.182Z,12.07
2023-05-08T18:16:31.219Z,12.35
2023-05-08T18:19:01.522Z,11.83
2023-05-08T18:21:34.044Z,11.33
2023-05-08T18:24:04.084Z,12.22
2023-05-08T18:26:34.086Z,11.44
2023-05-08T18:29:04.060Z,11.69
2023-05-08T18:31:34.076Z,11.21
2023-05-08T18:34:04.186Z,11.62
2023-05-08T18:36:36.725Z,11.80
2023-05-08T18:39:07.385Z,12.13
2023-05-08T18:41:37.394Z,12.15
2023-05-08T18:44:08.019Z,12.53
2023-05-08T18:46:38.234Z,12.54
2023-05-08T18:49:08.309Z,12.30
2023-05-08T18:51:40.935Z,11.82
2023-05-08T18:54:10.988Z,11.97
2023-05-08T18:56:40.983Z,11.85
2023-05-08T18:59:11.220Z,11.56
2023-05-08T19:01:41.252Z,11.89
2023-05-08T19:04:11.443Z,12.28
2023-05-08T19:06:44.125Z,12.54
2023-05-08T19:09:14.140Z,12.06
2023-05-08T19:11:44.188Z,12.00
2023-05-08T19:14:14.471Z,11.98
2023-05-08T19:16:44.478Z,11.70
2023-05-08T19:19:14.502Z,12.21
2023-05-08T19:21:47.148Z,12.16
2023-05-08T19:24:21.024Z,12.61
2023-05-08T19:26:51.143Z,15.04
2023-05-08T19:29:21.187Z,14.68
2023-05-08T19:31:51.410Z,13.72
2023-05-08T19:34:21.559Z,12.97
2023-05-08T19:36:54.270Z,13.61
2023-05-08T19:39:24.306Z,13.68
2023-05-08T19:41:54.375Z,13.09
2023-05-08T19:44:24.524Z,13.25
2023-05-08T19:46:54.542Z,13.48
2023-05-08T19:49:24.560Z,13.10
2023-05-08T19:51:57.237Z,13.40
2023-05-08T19:54:27.318Z,12.70
2023-05-08T19:56:57.417Z,13.44
2023-05-08T19:59:27.782Z,13.69
2023-05-08T20:01:57.837Z,13.95
2023-05-08T20:04:27.896Z,13.89
2023-05-08T20:07:00.538Z,13.55
2023-05-08T20:09:30.609Z,13.65
2023-05-08T20:12:00.832Z,13.01
2023-05-08T20:14:30.858Z,13.36
2023-05-08T20:17:00.906Z,13.72
2023-05-08T20:19:30.963Z,13.64
2023-05-08T20:22:03.878Z,13.94
2023-05-08T20:24:33.934Z,13.55
2023-05-08T20:27:04.077Z,13.83
2023-05-08T20:29:34.125Z,14.06
2023-05-08T20:32:04.174Z,13.66
2023-05-08T20:34:34.195Z,13.72
2023-05-08T20:37:06.809Z,13.59
2023-05-08T20:39:36.802Z,14.04
2023-05-08T20:42:06.969Z,14.18
2023-05-08T20:44:37.139Z,14.91
2023-05-08T20:47:07.448Z,16.58
2023-05-08T20:49:37.508Z,14.41
2023-05-08T20:52:10.282Z,14.71
2023-05-08T20:54:40.287Z,14.86
2023-05-08T20:57:10.405Z,14.23
2023-05-08T20:59:40.437Z,13.73
2023-05-08T21:02:10.565Z,14.27
2023-05-08T21:04:40.671Z,14.05
2023-05-08T21:07:13.410Z,14.04
2023-05-08T21:09:43.414Z,14.38
2023-05-08T21:12:13.533Z,13.93
2023-05-08T21:14:44.114Z,13.94
2023-05-08T21:17:14.238Z,14.13
2023-05-08T21:19:44.157Z,13.73
2023-05-08T21:22:17.547Z,13.45
2023-05-08T21:24:47.675Z,14.01
2023-05-08T21:27:17.806Z,14.10
2023-05-08T21:29:47.869Z,14.01
2023-05-08T21:32:17.997Z,14.08
2023-05-08T21:34:48.124Z,13.43
2023-05-08T21:37:20.938Z,13.81
2023-05-08T21:39:50.987Z,13.93
2023-05-08T21:42:21.006Z,13.93
2023-05-08T21:44:51.044Z,14.07
2023-05-08T21:47:22.504Z,13.99
2023-05-08T21:49:52.605Z,13.97
2023-05-08T21:52:26.041Z,13.85
2023-05-08T21:54:56.073Z,13.96
2023-05-08T21:57:26.059Z,14.29
2023-05-08T21:59:56.059Z,14.65
2023-05-08T22:02:26.243Z,14.57
2023-05-08T22:07:28.984Z,15.46
2023-05-08T22:09:58.940Z,14.70
2023-05-08T22:12:29.062Z,14.11
2023-05-08T22:14:59.050Z,14.74
2023-05-08T22:17:29.101Z,14.48
2023-05-08T22:19:59.123Z,15.22
2023-05-08T22:22:31.678Z,15.22
2023-05-08T22:25:01.755Z,14.84
2023-05-08T22:27:31.785Z,14.98
2023-05-08T22:30:02.569Z,15.74
2023-05-08T22:32:32.605Z,15.24
2023-05-08T22:35:02.940Z,14.95
2023-05-08T22:37:35.619Z,15.81
2023-05-08T22:40:06.168Z,15.92
2023-05-08T22:42:36.189Z,15.19
2023-05-08T22:45:06.458Z,16.06
2023-05-08T22:47:37.356Z,15.53
2023-05-08T22:50:09.383Z,14.15
2023-05-08T22:52:42.645Z,14.29
2023-05-08T22:55:12.887Z,14.03
2023-05-08T22:57:43.008Z,13.70
2023-05-08T23:00:16.386Z,13.57
2023-05-08T23:02:46.467Z,13.32
2023-05-08T23:05:16.597Z,13.27
2023-05-08T23:07:49.209Z,13.22
2023-05-08T23:10:19.350Z,13.29
2023-05-08T23:12:49.337Z,12.78
2023-05-08T23:15:28.241Z,12.04
2023-05-08T23:17:58.287Z,11.94
2023-05-08T23:20:28.312Z,11.91
2023-05-08T23:23:01.197Z,11.77
2023-05-08T23:25:31.181Z,11.71
2023-05-08T23:28:01.123Z,11.46
2023-05-08T23:30:31.181Z,11.59
2023-05-08T23:33:01.181Z,10.98
2023-05-08T23:35:31.472Z,10.80
2023-05-08T23:38:04.032Z,10.78
2023-05-08T23:40:33.934Z,10.60
2023-05-08T23:43:04.387Z,10.86
2023-05-08T23:45:34.407Z,10.23
2023-05-08T23:48:04.413Z,10.65
2023-05-08T23:50:34.360Z,10.46
2023-05-08T23:53:06.902Z,10.61
2023-05-08T23:55:38.474Z,10.59
2023-05-08T23:58:08.384Z,10.71
